<?xml version="1.0" encoding="utf-8"?>
<gpx xmlns:xsi="http://www.w3.org/2001/XMLSchema-instance" xmlns:xsd="http://www.w3.org/2001/XMLSchema" version="1.1" creator="Shapelink.com" xmlns="http://www.topografix.com/GPX/1/1" xmlns:gpxtpx="http://www.garmin.com/xmlschemas/TrackPointExtension/v1">
  <metadata>
    <name>Gåing 0.22 km, 2013-04-22</name>
    <desc></desc>
    <author><name>Mikael Blom</name></author> 
    <time>2013-04-22T16:49:10Z</time>
  </metadata>
  <trk>
    <name>Gåing 0.22 km, 2013-04-22</name>
    <trkseg>
      <trkpt lat="59.9537313" lon="17.7130561">
        <ele>36.1868</ele>
        <time>2013-04-22T16:49:10Z</time>
      </trkpt>
      <trkpt lat="59.95374" lon="17.7130622">
        <ele>36.1868</ele>
        <time>2013-04-22T16:49:11Z</time>
      </trkpt>
      <trkpt lat="59.9537499" lon="17.7130663">
        <ele>35.7061</ele>
        <time>2013-04-22T16:49:12Z</time>
      </trkpt>
      <trkpt lat="59.9537612" lon="17.7130744">
        <ele>35.2255</ele>
        <time>2013-04-22T16:49:13Z</time>
      </trkpt>
      <trkpt lat="59.9537731" lon="17.7130851">
        <ele>35.2255</ele>
        <time>2013-04-22T16:49:14Z</time>
      </trkpt>
      <trkpt lat="59.9537826" lon="17.7130995">
        <ele>35.7061</ele>
        <time>2013-04-22T16:49:15Z</time>
      </trkpt>
      <trkpt lat="59.9537903" lon="17.7131252">
        <ele>36.1868</ele>
        <time>2013-04-22T16:49:16Z</time>
      </trkpt>
      <trkpt lat="59.9537997" lon="17.7131454">
        <ele>36.1868</ele>
        <time>2013-04-22T16:49:17Z</time>
      </trkpt>
      <trkpt lat="59.9538114" lon="17.7131609">
        <ele>36.6675</ele>
        <time>2013-04-22T16:49:18Z</time>
      </trkpt>
      <trkpt lat="59.9538231" lon="17.7131783">
        <ele>37.6287</ele>
        <time>2013-04-22T16:49:19Z</time>
      </trkpt>
      <trkpt lat="59.9538333" lon="17.7131972">
        <ele>38.1094</ele>
        <time>2013-04-22T16:49:20Z</time>
      </trkpt>
      <trkpt lat="59.9538424" lon="17.7132179">
        <ele>38.5901</ele>
        <time>2013-04-22T16:49:21Z</time>
      </trkpt>
      <trkpt lat="59.9538528" lon="17.7132409">
        <ele>39.5513</ele>
        <time>2013-04-22T16:49:22Z</time>
      </trkpt>
      <trkpt lat="59.9538627" lon="17.7132621">
        <ele>40.0321</ele>
        <time>2013-04-22T16:49:23Z</time>
      </trkpt>
      <trkpt lat="59.9538705" lon="17.7132837">
        <ele>40.5128</ele>
        <time>2013-04-22T16:49:24Z</time>
      </trkpt>
      <trkpt lat="59.9538754" lon="17.7133029">
        <ele>40.5128</ele>
        <time>2013-04-22T16:49:25Z</time>
      </trkpt>
      <trkpt lat="59.9538762" lon="17.7133129">
        <ele>40.0321</ele>
        <time>2013-04-22T16:49:26Z</time>
      </trkpt>
      <trkpt lat="59.953879" lon="17.7133166">
        <ele>39.5513</ele>
        <time>2013-04-22T16:49:27Z</time>
      </trkpt>
      <trkpt lat="59.9538854" lon="17.713314">
        <ele>39.5513</ele>
        <time>2013-04-22T16:49:28Z</time>
      </trkpt>
      <trkpt lat="59.9538917" lon="17.7133052">
        <ele>39.0707</ele>
        <time>2013-04-22T16:49:29Z</time>
      </trkpt>
      <trkpt lat="59.9539007" lon="17.713299">
        <ele>39.0707</ele>
        <time>2013-04-22T16:49:30Z</time>
      </trkpt>
      <trkpt lat="59.9539114" lon="17.7133008">
        <ele>39.5513</ele>
        <time>2013-04-22T16:49:31Z</time>
      </trkpt>
      <trkpt lat="59.9539214" lon="17.7133036">
        <ele>39.5513</ele>
        <time>2013-04-22T16:49:32Z</time>
      </trkpt>
      <trkpt lat="59.9539315" lon="17.7133047">
        <ele>39.5513</ele>
        <time>2013-04-22T16:49:33Z</time>
      </trkpt>
      <trkpt lat="59.95394" lon="17.7133072">
        <ele>39.0707</ele>
        <time>2013-04-22T16:49:34Z</time>
      </trkpt>
      <trkpt lat="59.9539483" lon="17.7133036">
        <ele>39.0707</ele>
        <time>2013-04-22T16:49:35Z</time>
      </trkpt>
      <trkpt lat="59.9539571" lon="17.7132989">
        <ele>38.5901</ele>
        <time>2013-04-22T16:49:36Z</time>
      </trkpt>
      <trkpt lat="59.9539689" lon="17.7132999">
        <ele>38.1094</ele>
        <time>2013-04-22T16:49:37Z</time>
      </trkpt>
      <trkpt lat="59.9539821" lon="17.7133042">
        <ele>38.5901</ele>
        <time>2013-04-22T16:49:38Z</time>
      </trkpt>
      <trkpt lat="59.9539934" lon="17.713313">
        <ele>38.5901</ele>
        <time>2013-04-22T16:49:39Z</time>
      </trkpt>
      <trkpt lat="59.9540036" lon="17.7133231">
        <ele>38.5901</ele>
        <time>2013-04-22T16:49:40Z</time>
      </trkpt>
      <trkpt lat="59.9540136" lon="17.7133326">
        <ele>38.1094</ele>
        <time>2013-04-22T16:49:41Z</time>
      </trkpt>
      <trkpt lat="59.9540285" lon="17.7133319">
        <ele>38.1094</ele>
        <time>2013-04-22T16:49:42Z</time>
      </trkpt>
      <trkpt lat="59.9540434" lon="17.7133268">
        <ele>38.1094</ele>
        <time>2013-04-22T16:49:43Z</time>
      </trkpt>
      <trkpt lat="59.9540546" lon="17.7133274">
        <ele>38.1094</ele>
        <time>2013-04-22T16:49:44Z</time>
      </trkpt>
      <trkpt lat="59.9540636" lon="17.7133341">
        <ele>37.6287</ele>
        <time>2013-04-22T16:49:45Z</time>
      </trkpt>
      <trkpt lat="59.9540727" lon="17.7133414">
        <ele>37.1481</ele>
        <time>2013-04-22T16:49:46Z</time>
      </trkpt>
      <trkpt lat="59.954083" lon="17.7133545">
        <ele>36.6675</ele>
        <time>2013-04-22T16:49:47Z</time>
      </trkpt>
      <trkpt lat="59.9540892" lon="17.7133775">
        <ele>36.1868</ele>
        <time>2013-04-22T16:49:48Z</time>
      </trkpt>
      <trkpt lat="59.9541006" lon="17.7133938">
        <ele>36.1868</ele>
        <time>2013-04-22T16:49:49Z</time>
      </trkpt>
      <trkpt lat="59.9541136" lon="17.7134044">
        <ele>35.7061</ele>
        <time>2013-04-22T16:49:50Z</time>
      </trkpt>
      <trkpt lat="59.9541229" lon="17.7134176">
        <ele>36.1868</ele>
        <time>2013-04-22T16:49:51Z</time>
      </trkpt>
      <trkpt lat="59.9541313" lon="17.713432">
        <ele>36.1868</ele>
        <time>2013-04-22T16:49:52Z</time>
      </trkpt>
      <trkpt lat="59.9541427" lon="17.7134472">
        <ele>36.1868</ele>
        <time>2013-04-22T16:49:53Z</time>
      </trkpt>
      <trkpt lat="59.9541529" lon="17.7134616">
        <ele>36.1868</ele>
        <time>2013-04-22T16:49:54Z</time>
      </trkpt>
      <trkpt lat="59.9541607" lon="17.7134745">
        <ele>36.1868</ele>
        <time>2013-04-22T16:49:55Z</time>
      </trkpt>
      <trkpt lat="59.9541678" lon="17.7134921">
        <ele>36.6675</ele>
        <time>2013-04-22T16:49:56Z</time>
      </trkpt>
      <trkpt lat="59.9541746" lon="17.7135127">
        <ele>36.6675</ele>
        <time>2013-04-22T16:49:57Z</time>
      </trkpt>
      <trkpt lat="59.954184" lon="17.713531">
        <ele>37.1481</ele>
        <time>2013-04-22T16:49:58Z</time>
      </trkpt>
      <trkpt lat="59.9541943" lon="17.7135408">
        <ele>37.1481</ele>
        <time>2013-04-22T16:49:59Z</time>
      </trkpt>
      <trkpt lat="59.9542047" lon="17.7135463">
        <ele>37.1481</ele>
        <time>2013-04-22T16:50:00Z</time>
      </trkpt>
      <trkpt lat="59.9542161" lon="17.7135548">
        <ele>37.1481</ele>
        <time>2013-04-22T16:50:01Z</time>
      </trkpt>
      <trkpt lat="59.9542275" lon="17.7135652">
        <ele>37.1481</ele>
        <time>2013-04-22T16:50:02Z</time>
      </trkpt>
      <trkpt lat="59.9542368" lon="17.7135802">
        <ele>37.1481</ele>
        <time>2013-04-22T16:50:03Z</time>
      </trkpt>
      <trkpt lat="59.9542496" lon="17.7135952">
        <ele>37.6287</ele>
        <time>2013-04-22T16:50:04Z</time>
      </trkpt>
      <trkpt lat="59.9542577" lon="17.7136116">
        <ele>38.1094</ele>
        <time>2013-04-22T16:50:05Z</time>
      </trkpt>
      <trkpt lat="59.9542658" lon="17.7136248">
        <ele>37.6287</ele>
        <time>2013-04-22T16:50:06Z</time>
      </trkpt>
      <trkpt lat="59.9542782" lon="17.7136385">
        <ele>38.5901</ele>
        <time>2013-04-22T16:50:07Z</time>
      </trkpt>
      <trkpt lat="59.9542875" lon="17.7136569">
        <ele>38.1094</ele>
        <time>2013-04-22T16:50:08Z</time>
      </trkpt>
      <trkpt lat="59.9542932" lon="17.713681">
        <ele>38.1094</ele>
        <time>2013-04-22T16:50:09Z</time>
      </trkpt>
      <trkpt lat="59.9542985" lon="17.713704">
        <ele>38.1094</ele>
        <time>2013-04-22T16:50:10Z</time>
      </trkpt>
      <trkpt lat="59.9543063" lon="17.7137232">
        <ele>38.1094</ele>
        <time>2013-04-22T16:50:11Z</time>
      </trkpt>
      <trkpt lat="59.9543157" lon="17.7137397">
        <ele>38.5901</ele>
        <time>2013-04-22T16:50:12Z</time>
      </trkpt>
      <trkpt lat="59.9543243" lon="17.7137557">
        <ele>38.5901</ele>
        <time>2013-04-22T16:50:13Z</time>
      </trkpt>
      <trkpt lat="59.9543343" lon="17.7137687">
        <ele>38.5901</ele>
        <time>2013-04-22T16:50:14Z</time>
      </trkpt>
      <trkpt lat="59.9543451" lon="17.7137812">
        <ele>38.5901</ele>
        <time>2013-04-22T16:50:15Z</time>
      </trkpt>
      <trkpt lat="59.9543537" lon="17.7137931">
        <ele>38.5901</ele>
        <time>2013-04-22T16:50:16Z</time>
      </trkpt>
      <trkpt lat="59.9543646" lon="17.7138059">
        <ele>38.5901</ele>
        <time>2013-04-22T16:50:17Z</time>
      </trkpt>
      <trkpt lat="59.9543751" lon="17.7138221">
        <ele>38.5901</ele>
        <time>2013-04-22T16:50:18Z</time>
      </trkpt>
      <trkpt lat="59.9543812" lon="17.7138418">
        <ele>39.0707</ele>
        <time>2013-04-22T16:50:19Z</time>
      </trkpt>
      <trkpt lat="59.95439" lon="17.7138656">
        <ele>39.5513</ele>
        <time>2013-04-22T16:50:20Z</time>
      </trkpt>
      <trkpt lat="59.9544003" lon="17.7138903">
        <ele>40.5128</ele>
        <time>2013-04-22T16:50:21Z</time>
      </trkpt>
      <trkpt lat="59.9544071" lon="17.7139128">
        <ele>40.9934</ele>
        <time>2013-04-22T16:50:22Z</time>
      </trkpt>
      <trkpt lat="59.9544159" lon="17.7139319">
        <ele>41.474</ele>
        <time>2013-04-22T16:50:23Z</time>
      </trkpt>
      <trkpt lat="59.9544238" lon="17.7139502">
        <ele>41.474</ele>
        <time>2013-04-22T16:50:24Z</time>
      </trkpt>
      <trkpt lat="59.9544321" lon="17.7139706">
        <ele>41.474</ele>
        <time>2013-04-22T16:50:25Z</time>
      </trkpt>
      <trkpt lat="59.9544429" lon="17.7139879">
        <ele>41.474</ele>
        <time>2013-04-22T16:50:26Z</time>
      </trkpt>
      <trkpt lat="59.9544549" lon="17.7140029">
        <ele>41.474</ele>
        <time>2013-04-22T16:50:27Z</time>
      </trkpt>
      <trkpt lat="59.9544704" lon="17.7140177">
        <ele>41.474</ele>
        <time>2013-04-22T16:50:28Z</time>
      </trkpt>
      <trkpt lat="59.9544921" lon="17.7140324">
        <ele>41.474</ele>
        <time>2013-04-22T16:50:29Z</time>
      </trkpt>
      <trkpt lat="59.9545138" lon="17.7140455">
        <ele>41.9547</ele>
        <time>2013-04-22T16:50:30Z</time>
      </trkpt>
      <trkpt lat="59.9545307" lon="17.7140621">
        <ele>41.9547</ele>
        <time>2013-04-22T16:50:31Z</time>
      </trkpt>
      <trkpt lat="59.9545508" lon="17.7140801">
        <ele>42.4354</ele>
        <time>2013-04-22T16:50:32Z</time>
      </trkpt>
      <trkpt lat="59.9545689" lon="17.7140998">
        <ele>43.3966</ele>
        <time>2013-04-22T16:50:33Z</time>
      </trkpt>
      <trkpt lat="59.9545775" lon="17.7141193">
        <ele>43.3966</ele>
        <time>2013-04-22T16:50:34Z</time>
      </trkpt>
      <trkpt lat="59.9545848" lon="17.7141379">
        <ele>43.3966</ele>
        <time>2013-04-22T16:50:35Z</time>
      </trkpt>
      <trkpt lat="59.9545927" lon="17.7141592">
        <ele>43.3966</ele>
        <time>2013-04-22T16:50:36Z</time>
      </trkpt>
      <trkpt lat="59.9545996" lon="17.714182">
        <ele>43.3966</ele>
        <time>2013-04-22T16:50:37Z</time>
      </trkpt>
      <trkpt lat="59.9546055" lon="17.7142029">
        <ele>42.916</ele>
        <time>2013-04-22T16:50:38Z</time>
      </trkpt>
      <trkpt lat="59.9546077" lon="17.7142272">
        <ele>43.3966</ele>
        <time>2013-04-22T16:50:39Z</time>
      </trkpt>
      <trkpt lat="59.9546098" lon="17.714251">
        <ele>43.3966</ele>
        <time>2013-04-22T16:50:40Z</time>
      </trkpt>
      <trkpt lat="59.9546151" lon="17.7142698">
        <ele>42.916</ele>
        <time>2013-04-22T16:50:41Z</time>
      </trkpt>
      <trkpt lat="59.9546253" lon="17.7142868">
        <ele>42.916</ele>
        <time>2013-04-22T16:50:42Z</time>
      </trkpt>
      <trkpt lat="59.9546381" lon="17.7143039">
        <ele>43.3966</ele>
        <time>2013-04-22T16:50:43Z</time>
      </trkpt>
      <trkpt lat="59.9546492" lon="17.7143223">
        <ele>43.3966</ele>
        <time>2013-04-22T16:50:44Z</time>
      </trkpt>
      <trkpt lat="59.9546601" lon="17.7143422">
        <ele>43.8773</ele>
        <time>2013-04-22T16:50:45Z</time>
      </trkpt>
      <trkpt lat="59.9546718" lon="17.7143597">
        <ele>44.358</ele>
        <time>2013-04-22T16:50:46Z</time>
      </trkpt>
      <trkpt lat="59.9546783" lon="17.7143798">
        <ele>44.8386</ele>
        <time>2013-04-22T16:50:47Z</time>
      </trkpt>
      <trkpt lat="59.9546812" lon="17.7144007">
        <ele>44.358</ele>
        <time>2013-04-22T16:50:48Z</time>
      </trkpt>
      <trkpt lat="59.9546777" lon="17.7144365">
        <ele>43.8773</ele>
        <time>2013-04-22T16:50:49Z</time>
      </trkpt>
      <trkpt lat="59.9546694" lon="17.7144831">
        <ele>42.916</ele>
        <time>2013-04-22T16:50:50Z</time>
      </trkpt>
      <trkpt lat="59.9546687" lon="17.7145238">
        <ele>42.916</ele>
        <time>2013-04-22T16:50:51Z</time>
      </trkpt>
      <trkpt lat="59.9546707" lon="17.7145582">
        <ele>43.3966</ele>
        <time>2013-04-22T16:50:52Z</time>
      </trkpt>
      <trkpt lat="59.9546783" lon="17.7145929">
        <ele>43.8773</ele>
        <time>2013-04-22T16:50:53Z</time>
      </trkpt>
      <trkpt lat="59.9546926" lon="17.7146277">
        <ele>43.3966</ele>
        <time>2013-04-22T16:50:54Z</time>
      </trkpt>
      <trkpt lat="59.9547067" lon="17.7146603">
        <ele>43.3966</ele>
        <time>2013-04-22T16:50:55Z</time>
      </trkpt>
      <trkpt lat="59.9547181" lon="17.7146866">
        <ele>42.916</ele>
        <time>2013-04-22T16:50:56Z</time>
      </trkpt>
      <trkpt lat="59.9547301" lon="17.7147096">
        <ele>42.916</ele>
        <time>2013-04-22T16:50:57Z</time>
      </trkpt>
      <trkpt lat="59.9547451" lon="17.7147319">
        <ele>42.916</ele>
        <time>2013-04-22T16:50:58Z</time>
      </trkpt>
      <trkpt lat="59.9547621" lon="17.7147445">
        <ele>42.916</ele>
        <time>2013-04-22T16:50:59Z</time>
      </trkpt>
      <trkpt lat="59.9547795" lon="17.7147478">
        <ele>42.916</ele>
        <time>2013-04-22T16:51:00Z</time>
      </trkpt>
      <trkpt lat="59.9547947" lon="17.7147448">
        <ele>42.916</ele>
        <time>2013-04-22T16:51:01Z</time>
      </trkpt>
      <trkpt lat="59.9548106" lon="17.714739">
        <ele>42.916</ele>
        <time>2013-04-22T16:51:02Z</time>
      </trkpt>
      <trkpt lat="59.9548251" lon="17.7147282">
        <ele>41.9547</ele>
        <time>2013-04-22T16:51:03Z</time>
      </trkpt>
      <trkpt lat="59.9548386" lon="17.7147126">
        <ele>41.474</ele>
        <time>2013-04-22T16:51:04Z</time>
      </trkpt>
      <trkpt lat="59.9548496" lon="17.7146903">
        <ele>40.9934</ele>
        <time>2013-04-22T16:51:05Z</time>
      </trkpt>
      <trkpt lat="59.9548647" lon="17.7146675">
        <ele>40.5128</ele>
        <time>2013-04-22T16:51:06Z</time>
      </trkpt>
      <trkpt lat="59.9548803" lon="17.7146447">
        <ele>40.5128</ele>
        <time>2013-04-22T16:51:07Z</time>
      </trkpt>
      <trkpt lat="59.9548951" lon="17.7146205">
        <ele>40.0321</ele>
        <time>2013-04-22T16:51:08Z</time>
      </trkpt>
      <trkpt lat="59.9549129" lon="17.714587">
        <ele>40.5128</ele>
        <time>2013-04-22T16:51:09Z</time>
      </trkpt>
      <trkpt lat="59.9549299" lon="17.7145603">
        <ele>40.5128</ele>
        <time>2013-04-22T16:51:10Z</time>
      </trkpt>
      <trkpt lat="59.9549476" lon="17.7145328">
        <ele>40.9934</ele>
        <time>2013-04-22T16:51:11Z</time>
      </trkpt>
      <trkpt lat="59.9549632" lon="17.7145088">
        <ele>40.5128</ele>
        <time>2013-04-22T16:51:12Z</time>
      </trkpt>
      <trkpt lat="59.9549803" lon="17.714483">
        <ele>40.5128</ele>
        <time>2013-04-22T16:51:13Z</time>
      </trkpt>
      <trkpt lat="59.9549971" lon="17.7144568">
        <ele>40.5128</ele>
        <time>2013-04-22T16:51:14Z</time>
      </trkpt>
      <trkpt lat="59.9550126" lon="17.7144327">
        <ele>40.5128</ele>
        <time>2013-04-22T16:51:15Z</time>
      </trkpt>
      <trkpt lat="59.9550259" lon="17.7144121">
        <ele>40.5128</ele>
        <time>2013-04-22T16:51:16Z</time>
      </trkpt>
      <trkpt lat="59.9550352" lon="17.7143928">
        <ele>40.5128</ele>
        <time>2013-04-22T16:51:17Z</time>
      </trkpt>
      <trkpt lat="59.9550408" lon="17.7143707">
        <ele>40.0321</ele>
        <time>2013-04-22T16:51:18Z</time>
      </trkpt>
      <trkpt lat="59.9550452" lon="17.7143503">
        <ele>39.5513</ele>
        <time>2013-04-22T16:51:19Z</time>
      </trkpt>
      <trkpt lat="59.9550497" lon="17.7143254">
        <ele>39.0707</ele>
        <time>2013-04-22T16:51:20Z</time>
      </trkpt>
      <trkpt lat="59.9550593" lon="17.7143125">
        <ele>39.0707</ele>
        <time>2013-04-22T16:51:21Z</time>
      </trkpt>
      <trkpt lat="59.9550684" lon="17.7143064">
        <ele>39.0707</ele>
        <time>2013-04-22T16:51:22Z</time>
      </trkpt>
      <trkpt lat="59.9550765" lon="17.7143008">
        <ele>39.0707</ele>
        <time>2013-04-22T16:51:23Z</time>
      </trkpt>
      <trkpt lat="59.9550849" lon="17.71429">
        <ele>39.0707</ele>
        <time>2013-04-22T16:51:24Z</time>
      </trkpt>
      <trkpt lat="59.955091" lon="17.7142688">
        <ele>39.0707</ele>
        <time>2013-04-22T16:51:25Z</time>
      </trkpt>
      <trkpt lat="59.9550996" lon="17.7142494">
        <ele>39.0707</ele>
        <time>2013-04-22T16:51:26Z</time>
      </trkpt>
      <trkpt lat="59.9551087" lon="17.7142338">
        <ele>39.0707</ele>
        <time>2013-04-22T16:51:27Z</time>
      </trkpt>
      <trkpt lat="59.9551168" lon="17.7142194">
        <ele>39.0707</ele>
        <time>2013-04-22T16:51:28Z</time>
      </trkpt>
      <trkpt lat="59.9551255" lon="17.7142037">
        <ele>39.0707</ele>
        <time>2013-04-22T16:51:29Z</time>
      </trkpt>
      <trkpt lat="59.9551355" lon="17.7141872">
        <ele>39.5513</ele>
        <time>2013-04-22T16:51:30Z</time>
      </trkpt>
      <trkpt lat="59.9551463" lon="17.7141723">
        <ele>39.5513</ele>
        <time>2013-04-22T16:51:31Z</time>
      </trkpt>
      <trkpt lat="59.9551558" lon="17.7141583">
        <ele>39.5513</ele>
        <time>2013-04-22T16:51:32Z</time>
      </trkpt>
      <trkpt lat="59.9551656" lon="17.7141501">
        <ele>39.5513</ele>
        <time>2013-04-22T16:51:33Z</time>
      </trkpt>
    </trkseg>
  </trk>
</gpx>